Weather observations for the past three days for
Akhiok
Metric (Imperial)
Date Time (akdt) Wind (kph) Vis. (km) Weather Sky Cond. Temperature (ºC) Relative Humidity Wind Chill (°C) Heat Index (°C) Pressure Precipitation (cm)
Air Dwpt 6 hour altimeter (cm) sea level (mb) 1 hr 3 hr 6 hr
Max. Min.
09 22:56 NW 30 G 37 0.00 Mostly Cloudy BKN075 0 0 0% 74.6 0.0
09 21:56 NW 33 G 41 0.00 Overcast and Breezy OVC075 0 0 0% 74.6 0.0
09 20:56 NW 30 G 41 0.00 Fair CLR 0 0 0% 74.55 0.0
09 19:56 NW 31 G 37 0.00 Fair CLR 0 0 0% 74.55 0.0
09 18:56 NW 28 G 39 0.00 Fair CLR 0 0 0% 74.5 0.0
09 17:56 NW 31 G 41 0.00 A Few Clouds FEW070 0 0 0% 74.5 0.0
09 16:56 NW 35 G 50 0.00 Mostly Cloudy and Breezy BKN070 0 0 0% 74.5 0.0
09 15:56 NW 30 G 43 0.00 A Few Clouds FEW065 0 0 0% 74.5 0.0
09 14:56 NW 20 0.00 Fair CLR 0 0 0% 74.5 0.0
09 13:56 NW 26 G 37 0.00 Fair CLR 0 0 0% 74.5 0.0
09 12:56 NW 22 0.00 Fair CLR 0 0 0% 74.5 0.0
09 11:56 NW 20 G 30 0.00 A Few Clouds FEW030 0 0 0% 74.5 0.0
09 10:56 NW 22 G 28 0.00 Fair CLR 0 0 0% 74.52 0.0
09 09:56 Vrbl 7 0.00 Mostly Cloudy BKN030 BKN036 0 0 0% 74.55 0.0
09 08:56 N 19 G 28 0.00 Overcast OVC085 0 0 0% 74.55 0.0
09 07:56 NW 22 0.00 Overcast OVC085 0 0 0% 74.55 0.0
09 06:56 W 17 0.00 Overcast BKN031 OVC041 0 0 0% 74.57 0.0
09 05:56 N 17 0.00 Overcast FEW060 OVC080 0 0 0% 74.55 0.0
09 04:56 Calm 0.00 Overcast OVC055 0 0 0% 74.6 0.0
09 03:56 N 9 0.00 Overcast OVC080 0 0 0% 74.63 0.0
09 02:56 NE 6 0.00 Overcast FEW025 OVC080 0 0 0% 74.65 0.0
09 01:56 Calm 0.00 Overcast OVC080 0 0 0% 74.7 0.0
09 00:56 W 9 0.00 Overcast BKN037 OVC075 0 0 0% 74.73 0.0
08 23:56 W 13 0.00 Overcast BKN025 OVC039 0 0 0% 74.78 0.0
08 22:56 W 15 0.00 Overcast BKN023 OVC070 0 0 0% 74.83 0.0
08 21:56 W 15 0.00 Overcast BKN020 BKN032 OVC070 0 0 0% 74.85 0.0
08 20:56 W 17 0.00 Overcast BKN020 OVC033 0 0 0% 74.88 0.0
08 19:56 W 11 0.00 Overcast BKN026 OVC031 0 0 0% 74.88 0.0
08 18:56 W 15 0.00 Overcast OVC028 0 0 0% 74.93 0.0
08 17:56 S 11 0.00 Overcast OVC035 0 0 0% 74.96 0.0
08 16:56 S 11 0.00 Overcast BKN035 BKN045 OVC060 0 0 0% 75.01 0.0
08 15:56 SW 13 0.00 Overcast OVC043 0 0 0% 75.06 0.0
08 14:56 S 7 0.00 Overcast OVC045 0 0 0% 75.11 0.0
08 13:56 S 7 0.00 Overcast BKN041 OVC060 0 0 0% 75.16 0.0
08 12:56 SE 7 0.00 Overcast SCT037 OVC060 0 0 0% 75.21 0.0
08 11:56 SE 7 0.00 Overcast BKN035 OVC060 0 0 0% 75.23 0.0
08 10:56 E 6 0.00 Overcast OVC035 0 0 0% 75.29 0.0
08 09:56 NE 13 0.00 Overcast FEW033 OVC065 0 0 0% 75.34 0.0
08 08:56 NE 11 0.00 Overcast OVC070 0 0 0% 75.36 0.0
08 07:56 NE 15 0.00 Overcast BKN031 OVC065 0 0 0% 75.41 0.0
08 06:56 N 13 0.00 Overcast OVC029 0 0 0% 75.44 0.0
08 05:56 NE 11 0.00 Overcast OVC031 0 0 0% 75.49 0.0
08 04:56 N 11 0.00 Overcast OVC029 0 0 0% 75.54 0.0
08 03:56 NE 11 0.00 Overcast OVC027 0 0 0% 75.59 0.0
08 02:56 NE 7 0.00 Overcast OVC029 0 0 0% 75.64 0.0
08 01:56 NE 7 0.00 Mostly Cloudy BKN031 0 0 0% 75.69 0.0
08 00:56 NE 13 0.00 Overcast OVC041 0 0 0% 75.74 0.0
07 23:56 NE 15 0.00 Overcast OVC039 0 0 0% 75.79 0.0
07 22:56 E 15 0.00 Mostly Cloudy BKN040 0 0 0% 75.84 0.0
07 21:56 E 26 G 35 0.00 Overcast OVC038 0 0 0% 75.87 0.0
07 20:56 E 22 0.00 Mostly Cloudy BKN038 0 0 0% 75.9 0.0
07 19:56 E 17 0.00 Mostly Cloudy BKN042 0 0 0% 75.92 0.0
07 18:56 E 11 0.00 Mostly Cloudy BKN040 0 0 0% 75.95 0.0
07 17:56 E 17 0.00 Mostly Cloudy BKN038 0 0 0% 75.97 0.0
07 16:56 SE 17 0.00 A Few Clouds FEW038 0 0 0% 76.05 0.0
07 15:56 SE 22 0.00 Mostly Cloudy BKN039 0 0 0% 76.1 0.0
07 14:56 SE 13 0.00 Overcast OVC037 0 0 0% 76.15 0.0
07 13:56 Vrbl 9 0.00 Overcast OVC035 0 0 0% 76.17 0.0
07 12:56 Vrbl 6 0.00 Mostly Cloudy BKN035 0 0 0% 76.23 0.0
07 11:56 E 7 0.00 Overcast OVC031 0 0 0% 76.25 0.0
07 10:56 Vrbl 6 0.00 Overcast OVC025 0 0 0% 76.25 0.0
07 09:56 SE 6 0.00 Overcast OVC023 3.3 0 79% 76.3 0.0
07 08:56 NE 7 0.00 Mostly Cloudy BKN027 1.7 -0.6 85% -0 76.33 0.0
07 07:56 N 6 0.00 Partly Cloudy FEW002 SCT029 0 -1.1 92% 76.33 0.0
07 06:56 Calm 0.00 Fair CLR 0 0 0% 76.33 0.0
07 05:56 Calm 0.00 Partly Cloudy SCT020 0 0 0% 76.35 0.0
07 04:56 NW 9 0.00 Overcast OVC020 0 0 0% 76.38 0.0
07 03:56 NW 9 0.00 Overcast OVC020 0 0 0% 76.38 0.0
07 02:56 NW 9 0.00 Overcast OVC020 0 0 0% 76.43 0.0
07 01:56 NW 7 0.00 Overcast OVC018 0 0 0% 76.43 0.0
07 00:56 NW 9 0.00 Mostly Cloudy BKN016 0 0 0% 76.45 0.0
06 23:56 NW 13 0.00 Fair CLR 0 0 0% 76.43 0.0
Date Time (akdt) Wind (kph) Vis. (km) Weather Sky Cond. Air Dwpt Max. Min. Relative Humidity Wind Chill (°C) Heat Index (°C) altimeter (cm) sea level (mb) 1 hr 3 hr 6 hr
6 hour
Temperature (ºC) Pressure Precipitation (cm)